sensor_id;sensor_type;location;lat;lon;timestamp;P1;durP1;ratioP1;P2;durP2;ratioP2
13208;SDS011;6669;42.678;23.332;2023-11-19T00:00:27;1.83;;;1.70;;
13208;SDS011;6669;42.678;23.332;2023-11-19T00:02:55;1.70;;;1.60;;
13208;SDS011;6669;42.678;23.332;2023-11-19T00:05:24;1.73;;;1.63;;
13208;SDS011;6669;42.678;23.332;2023-11-19T00:07:54;2.10;;;1.90;;
13208;SDS011;6669;42.678;23.332;2023-11-19T00:10:23;1.70;;;1.60;;
13208;SDS011;6669;42.678;23.332;2023-11-19T00:12:52;1.60;;;1.50;;
13208;SDS011;6669;42.678;23.332;2023-11-19T00:15:20;1.90;;;1.80;;
13208;SDS011;6669;42.678;23.332;2023-11-19T00:17:50;2.00;;;1.60;;
13208;SDS011;6669;42.678;23.332;2023-11-19T00:20:19;1.60;;;1.50;;
13208;SDS011;6669;42.678;23.332;2023-11-19T00:22:48;1.87;;;1.77;;
13208;SDS011;6669;42.678;23.332;2023-11-19T00:25:19;1.90;;;1.80;;
13208;SDS011;6669;42.678;23.332;2023-11-19T00:27:50;1.80;;;1.70;;
13208;SDS011;6669;42.678;23.332;2023-11-19T00:30:20;1.70;;;1.60;;
13208;SDS011;6669;42.678;23.332;2023-11-19T00:32:48;1.90;;;1.80;;
13208;SDS011;6669;42.678;23.332;2023-11-19T00:35:16;1.87;;;1.70;;
13208;SDS011;6669;42.678;23.332;2023-11-19T00:37:45;2.00;;;1.90;;
13208;SDS011;6669;42.678;23.332;2023-11-19T00:40:14;1.60;;;1.50;;
13208;SDS011;6669;42.678;23.332;2023-11-19T00:42:45;1.70;;;1.60;;
13208;SDS011;6669;42.678;23.332;2023-11-19T00:45:15;1.90;;;1.80;;
13208;SDS011;6669;42.678;23.332;2023-11-19T00:47:43;2.03;;;1.90;;
13208;SDS011;6669;42.678;23.332;2023-11-19T00:50:12;1.93;;;1.83;;
13208;SDS011;6669;42.678;23.332;2023-11-19T00:52:40;2.20;;;1.90;;
13208;SDS011;6669;42.678;23.332;2023-11-19T00:55:08;1.57;;;1.47;;
13208;SDS011;6669;42.678;23.332;2023-11-19T00:57:38;1.87;;;1.77;;
13208;SDS011;6669;42.678;23.332;2023-11-19T01:00:07;1.60;;;1.50;;
13208;SDS011;6669;42.678;23.332;2023-11-19T01:02:46;1.60;;;1.50;;
13208;SDS011;6669;42.678;23.332;2023-11-19T01:05:18;1.77;;;1.67;;
13208;SDS011;6669;42.678;23.332;2023-11-19T01:07:48;1.77;;;1.67;;
13208;SDS011;6669;42.678;23.332;2023-11-19T01:10:16;1.70;;;1.60;;
13208;SDS011;6669;42.678;23.332;2023-11-19T01:12:45;1.87;;;1.77;;
13208;SDS011;6669;42.678;23.332;2023-11-19T01:15:13;2.00;;;1.90;;
13208;SDS011;6669;42.678;23.332;2023-11-19T01:17:41;1.83;;;1.73;;
13208;SDS011;6669;42.678;23.332;2023-11-19T01:20:14;1.33;;;1.23;;
13208;SDS011;6669;42.678;23.332;2023-11-19T01:22:42;1.47;;;1.37;;
13208;SDS011;6669;42.678;23.332;2023-11-19T01:25:11;1.73;;;1.63;;
13208;SDS011;6669;42.678;23.332;2023-11-19T01:27:39;1.70;;;1.60;;
13208;SDS011;6669;42.678;23.332;2023-11-19T01:30:07;1.73;;;1.63;;
13208;SDS011;6669;42.678;23.332;2023-11-19T01:32:39;1.57;;;1.47;;
13208;SDS011;6669;42.678;23.332;2023-11-19T01:35:08;1.60;;;1.50;;
13208;SDS011;6669;42.678;23.332;2023-11-19T01:37:38;1.90;;;1.80;;
13208;SDS011;6669;42.678;23.332;2023-11-19T01:40:06;1.70;;;1.60;;
13208;SDS011;6669;42.678;23.332;2023-11-19T01:42:38;3.00;;;1.73;;
13208;SDS011;6669;42.678;23.332;2023-11-19T01:45:07;1.53;;;1.43;;
13208;SDS011;6669;42.678;23.332;2023-11-19T01:47:37;1.60;;;1.50;;
13208;SDS011;6669;42.678;23.332;2023-11-19T01:50:06;1.60;;;1.50;;
13208;SDS011;6669;42.678;23.332;2023-11-19T01:52:35;1.50;;;1.40;;
13208;SDS011;6669;42.678;23.332;2023-11-19T01:55:06;2.23;;;1.70;;
13208;SDS011;6669;42.678;23.332;2023-11-19T01:57:36;1.90;;;1.80;;
13208;SDS011;6669;42.678;23.332;2023-11-19T02:00:07;2.33;;;1.63;;
13208;SDS011;6669;42.678;23.332;2023-11-19T02:02:39;1.70;;;1.60;;
13208;SDS011;6669;42.678;23.332;2023-11-19T02:05:08;1.60;;;1.50;;
13208;SDS011;6669;42.678;23.332;2023-11-19T02:07:39;1.63;;;1.53;;
13208;SDS011;6669;42.678;23.332;2023-11-19T02:10:07;2.07;;;1.20;;
13208;SDS011;6669;42.678;23.332;2023-11-19T02:12:40;1.67;;;1.57;;
13208;SDS011;6669;42.678;23.332;2023-11-19T02:15:10;1.57;;;1.47;;
13208;SDS011;6669;42.678;23.332;2023-11-19T02:17:38;5.20;;;3.60;;
13208;SDS011;6669;42.678;23.332;2023-11-19T02:20:07;1.70;;;1.60;;
13208;SDS011;6669;42.678;23.332;2023-11-19T02:22:40;1.07;;;1.03;;
13208;SDS011;6669;42.678;23.332;2023-11-19T02:25:10;1.60;;;1.50;;
13208;SDS011;6669;42.678;23.332;2023-11-19T02:27:48;1.70;;;1.60;;
13208;SDS011;6669;42.678;23.332;2023-11-19T02:30:22;1.77;;;1.67;;
13208;SDS011;6669;42.678;23.332;2023-11-19T02:32:53;1.93;;;1.60;;
13208;SDS011;6669;42.678;23.332;2023-11-19T02:35:24;1.77;;;1.67;;
13208;SDS011;6669;42.678;23.332;2023-11-19T02:37:52;1.57;;;1.47;;
13208;SDS011;6669;42.678;23.332;2023-11-19T02:40:22;1.57;;;1.47;;
13208;SDS011;6669;42.678;23.332;2023-11-19T02:42:52;1.50;;;1.40;;
13208;SDS011;6669;42.678;23.332;2023-11-19T02:45:22;1.73;;;1.63;;
13208;SDS011;6669;42.678;23.332;2023-11-19T02:47:50;1.90;;;1.70;;
13208;SDS011;6669;42.678;23.332;2023-11-19T02:50:19;1.63;;;1.53;;
13208;SDS011;6669;42.678;23.332;2023-11-19T02:52:52;0.93;;;0.93;;
13208;SDS011;6669;42.678;23.332;2023-11-19T02:55:23;2.03;;;1.93;;
13208;SDS011;6669;42.678;23.332;2023-11-19T02:57:56;1.40;;;1.30;;
13208;SDS011;6669;42.678;23.332;2023-11-19T03:00:26;2.00;;;1.57;;
13208;SDS011;6669;42.678;23.332;2023-11-19T03:03:02;1.70;;;1.60;;
13208;SDS011;6669;42.678;23.332;2023-11-19T03:05:44;1.97;;;1.87;;
13208;SDS011;6669;42.678;23.332;2023-11-19T03:08:13;1.90;;;1.80;;
13208;SDS011;6669;42.678;23.332;2023-11-19T03:10:45;1.70;;;1.53;;
13208;SDS011;6669;42.678;23.332;2023-11-19T03:13:14;1.60;;;1.50;;
13208;SDS011;6669;42.678;23.332;2023-11-19T03:15:43;1.80;;;1.70;;
13208;SDS011;6669;42.678;23.332;2023-11-19T03:18:12;1.57;;;1.40;;
13208;SDS011;6669;42.678;23.332;2023-11-19T03:20:41;1.50;;;1.40;;
13208;SDS011;6669;42.678;23.332;2023-11-19T03:23:09;1.40;;;1.30;;
13208;SDS011;6669;42.678;23.332;2023-11-19T03:25:37;1.40;;;1.30;;
13208;SDS011;6669;42.678;23.332;2023-11-19T03:28:05;1.60;;;1.50;;
13208;SDS011;6669;42.678;23.332;2023-11-19T03:30:35;1.80;;;1.70;;
13208;SDS011;6669;42.678;23.332;2023-11-19T03:33:03;2.20;;;1.80;;
13208;SDS011;6669;42.678;23.332;2023-11-19T03:35:31;2.30;;;2.10;;
13208;SDS011;6669;42.678;23.332;2023-11-19T03:38:00;1.90;;;1.80;;
13208;SDS011;6669;42.678;23.332;2023-11-19T03:40:28;1.70;;;1.60;;
13208;SDS011;6669;42.678;23.332;2023-11-19T03:42:57;1.80;;;1.70;;
13208;SDS011;6669;42.678;23.332;2023-11-19T03:45:25;1.70;;;1.60;;
13208;SDS011;6669;42.678;23.332;2023-11-19T03:47:55;1.93;;;1.83;;
13208;SDS011;6669;42.678;23.332;2023-11-19T03:50:23;1.73;;;1.63;;
13208;SDS011;6669;42.678;23.332;2023-11-19T03:52:51;1.50;;;1.40;;
13208;SDS011;6669;42.678;23.332;2023-11-19T03:55:20;1.90;;;1.80;;
13208;SDS011;6669;42.678;23.332;2023-11-19T03:57:48;2.00;;;1.80;;
13208;SDS011;6669;42.678;23.332;2023-11-19T04:00:16;1.40;;;1.30;;
13208;SDS011;6669;42.678;23.332;2023-11-19T04:02:47;2.03;;;1.90;;
13208;SDS011;6669;42.678;23.332;2023-11-19T04:05:17;1.70;;;1.60;;
13208;SDS011;6669;42.678;23.332;2023-11-19T04:07:46;2.33;;;1.70;;
13208;SDS011;6669;42.678;23.332;2023-11-19T04:10:14;1.40;;;1.30;;
13208;SDS011;6669;42.678;23.332;2023-11-19T04:12:43;1.70;;;1.47;;
13208;SDS011;6669;42.678;23.332;2023-11-19T04:15:12;1.60;;;1.50;;
13208;SDS011;6669;42.678;23.332;2023-11-19T04:17:40;1.70;;;1.60;;
13208;SDS011;6669;42.678;23.332;2023-11-19T04:20:09;1.63;;;1.53;;
13208;SDS011;6669;42.678;23.332;2023-11-19T04:22:42;1.73;;;1.63;;
13208;SDS011;6669;42.678;23.332;2023-11-19T04:25:10;1.90;;;1.53;;
13208;SDS011;6669;42.678;23.332;2023-11-19T04:27:38;1.60;;;1.50;;
13208;SDS011;6669;42.678;23.332;2023-11-19T04:30:06;2.00;;;1.80;;
13208;SDS011;6669;42.678;23.332;2023-11-19T04:32:37;1.90;;;1.73;;
13208;SDS011;6669;42.678;23.332;2023-11-19T04:35:06;1.77;;;1.67;;
13208;SDS011;6669;42.678;23.332;2023-11-19T04:37:36;2.03;;;1.83;;
13208;SDS011;6669;42.678;23.332;2023-11-19T04:40:06;1.60;;;1.50;;
13208;SDS011;6669;42.678;23.332;2023-11-19T04:42:35;1.50;;;1.40;;
13208;SDS011;6669;42.678;23.332;2023-11-19T04:45:04;1.30;;;1.20;;
13208;SDS011;6669;42.678;23.332;2023-11-19T04:47:33;1.87;;;1.77;;
13208;SDS011;6669;42.678;23.332;2023-11-19T04:50:02;1.60;;;1.50;;
13208;SDS011;6669;42.678;23.332;2023-11-19T04:52:30;1.73;;;1.63;;
13208;SDS011;6669;42.678;23.332;2023-11-19T04:54:58;1.60;;;1.50;;
13208;SDS011;6669;42.678;23.332;2023-11-19T04:57:28;1.83;;;1.70;;
13208;SDS011;6669;42.678;23.332;2023-11-19T04:59:56;1.80;;;1.70;;
13208;SDS011;6669;42.678;23.332;2023-11-19T05:02:24;1.90;;;1.70;;
13208;SDS011;6669;42.678;23.332;2023-11-19T05:04:52;1.77;;;1.67;;
13208;SDS011;6669;42.678;23.332;2023-11-19T05:07:21;1.80;;;1.70;;
13208;SDS011;6669;42.678;23.332;2023-11-19T05:09:49;1.73;;;1.63;;
13208;SDS011;6669;42.678;23.332;2023-11-19T05:12:17;1.57;;;1.47;;
13208;SDS011;6669;42.678;23.332;2023-11-19T05:14:47;2.13;;;1.93;;
13208;SDS011;6669;42.678;23.332;2023-11-19T05:17:17;1.80;;;1.70;;
13208;SDS011;6669;42.678;23.332;2023-11-19T05:19:45;1.70;;;1.60;;
13208;SDS011;6669;42.678;23.332;2023-11-19T05:22:15;1.80;;;1.70;;
13208;SDS011;6669;42.678;23.332;2023-11-19T05:24:43;1.60;;;1.50;;
13208;SDS011;6669;42.678;23.332;2023-11-19T05:27:11;2.20;;;2.00;;
13208;SDS011;6669;42.678;23.332;2023-11-19T05:29:40;1.90;;;1.70;;
13208;SDS011;6669;42.678;23.332;2023-11-19T05:32:10;1.70;;;1.60;;
13208;SDS011;6669;42.678;23.332;2023-11-19T05:34:39;1.77;;;1.67;;
13208;SDS011;6669;42.678;23.332;2023-11-19T05:37:10;2.20;;;1.83;;
13208;SDS011;6669;42.678;23.332;2023-11-19T05:39:38;1.70;;;1.60;;
13208;SDS011;6669;42.678;23.332;2023-11-19T05:42:06;1.60;;;1.50;;
13208;SDS011;6669;42.678;23.332;2023-11-19T05:44:36;1.83;;;1.73;;
13208;SDS011;6669;42.678;23.332;2023-11-19T05:47:07;1.80;;;1.70;;
13208;SDS011;6669;42.678;23.332;2023-11-19T05:49:37;1.70;;;1.60;;
13208;SDS011;6669;42.678;23.332;2023-11-19T05:52:05;1.57;;;1.47;;
13208;SDS011;6669;42.678;23.332;2023-11-19T05:54:36;1.70;;;1.60;;
13208;SDS011;6669;42.678;23.332;2023-11-19T05:57:04;1.53;;;1.43;;
13208;SDS011;6669;42.678;23.332;2023-11-19T05:59:35;1.80;;;1.70;;
13208;SDS011;6669;42.678;23.332;2023-11-19T06:02:04;1.40;;;1.30;;
13208;SDS011;6669;42.678;23.332;2023-11-19T06:04:32;1.63;;;1.53;;
13208;SDS011;6669;42.678;23.332;2023-11-19T06:07:02;1.60;;;1.50;;
13208;SDS011;6669;42.678;23.332;2023-11-19T06:09:30;2.57;;;2.07;;
13208;SDS011;6669;42.678;23.332;2023-11-19T06:12:00;2.30;;;2.10;;
13208;SDS011;6669;42.678;23.332;2023-11-19T06:14:28;2.20;;;2.00;;
13208;SDS011;6669;42.678;23.332;2023-11-19T06:16:56;1.70;;;1.60;;
13208;SDS011;6669;42.678;23.332;2023-11-19T06:19:24;2.20;;;2.00;;
13208;SDS011;6669;42.678;23.332;2023-11-19T06:21:56;1.50;;;1.40;;
13208;SDS011;6669;42.678;23.332;2023-11-19T06:24:26;7.10;;;4.93;;
13208;SDS011;6669;42.678;23.332;2023-11-19T06:26:54;2.57;;;2.37;;
13208;SDS011;6669;42.678;23.332;2023-11-19T06:29:22;1.60;;;1.50;;
13208;SDS011;6669;42.678;23.332;2023-11-19T06:31:51;2.13;;;1.93;;
13208;SDS011;6669;42.678;23.332;2023-11-19T06:34:19;3.70;;;3.40;;
13208;SDS011;6669;42.678;23.332;2023-11-19T06:36:47;2.00;;;1.80;;
13208;SDS011;6669;42.678;23.332;2023-11-19T06:39:15;8.57;;;4.10;;
13208;SDS011;6669;42.678;23.332;2023-11-19T06:41:46;6.40;;;3.73;;
13208;SDS011;6669;42.678;23.332;2023-11-19T06:44:17;2.90;;;2.53;;
13208;SDS011;6669;42.678;23.332;2023-11-19T06:46:46;3.77;;;2.70;;
13208;SDS011;6669;42.678;23.332;2023-11-19T06:49:16;2.77;;;2.17;;
13208;SDS011;6669;42.678;23.332;2023-11-19T06:51:45;5.13;;;3.70;;
13208;SDS011;6669;42.678;23.332;2023-11-19T06:54:13;3.23;;;2.90;;
13208;SDS011;6669;42.678;23.332;2023-11-19T06:56:42;2.70;;;2.50;;
13208;SDS011;6669;42.678;23.332;2023-11-19T06:59:14;5.10;;;3.90;;
13208;SDS011;6669;42.678;23.332;2023-11-19T07:01:42;2.40;;;1.83;;
13208;SDS011;6669;42.678;23.332;2023-11-19T07:04:10;2.70;;;2.50;;
13208;SDS011;6669;42.678;23.332;2023-11-19T07:06:39;2.40;;;2.20;;
13208;SDS011;6669;42.678;23.332;2023-11-19T07:09:08;1.90;;;1.70;;
13208;SDS011;6669;42.678;23.332;2023-11-19T07:11:37;2.07;;;1.97;;
13208;SDS011;6669;42.678;23.332;2023-11-19T07:14:06;2.60;;;2.40;;
13208;SDS011;6669;42.678;23.332;2023-11-19T07:16:36;1.87;;;1.77;;
13208;SDS011;6669;42.678;23.332;2023-11-19T07:19:05;3.60;;;1.70;;
13208;SDS011;6669;42.678;23.332;2023-11-19T07:21:33;2.63;;;2.43;;
13208;SDS011;6669;42.678;23.332;2023-11-19T07:24:06;2.10;;;1.90;;
13208;SDS011;6669;42.678;23.332;2023-11-19T07:26:34;1.80;;;1.70;;
13208;SDS011;6669;42.678;23.332;2023-11-19T07:29:03;2.07;;;1.97;;
13208;SDS011;6669;42.678;23.332;2023-11-19T07:31:35;1.93;;;1.83;;
13208;SDS011;6669;42.678;23.332;2023-11-19T07:34:03;3.33;;;2.40;;
13208;SDS011;6669;42.678;23.332;2023-11-19T07:36:32;2.80;;;2.40;;
13208;SDS011;6669;42.678;23.332;2023-11-19T07:39:02;2.67;;;2.40;;
13208;SDS011;6669;42.678;23.332;2023-11-19T07:41:31;2.47;;;2.00;;
13208;SDS011;6669;42.678;23.332;2023-11-19T07:44:00;2.20;;;1.70;;
13208;SDS011;6669;42.678;23.332;2023-11-19T07:46:28;2.20;;;2.00;;
13208;SDS011;6669;42.678;23.332;2023-11-19T07:48:58;2.50;;;2.30;;
13208;SDS011;6669;42.678;23.332;2023-11-19T07:51:26;2.33;;;2.13;;
13208;SDS011;6669;42.678;23.332;2023-11-19T07:53:54;2.43;;;2.17;;
13208;SDS011;6669;42.678;23.332;2023-11-19T07:56:22;2.20;;;2.00;;
13208;SDS011;6669;42.678;23.332;2023-11-19T07:58:51;1.87;;;1.77;;
13208;SDS011;6669;42.678;23.332;2023-11-19T08:01:20;2.30;;;2.10;;
13208;SDS011;6669;42.678;23.332;2023-11-19T08:03:50;1.77;;;1.53;;
13208;SDS011;6669;42.678;23.332;2023-11-19T08:06:22;2.37;;;2.17;;
13208;SDS011;6669;42.678;23.332;2023-11-19T08:08:50;2.77;;;2.30;;
13208;SDS011;6669;42.678;23.332;2023-11-19T08:11:19;2.17;;;2.03;;
13208;SDS011;6669;42.678;23.332;2023-11-19T08:13:47;1.77;;;1.67;;
13208;SDS011;6669;42.678;23.332;2023-11-19T08:16:15;2.67;;;2.47;;
13208;SDS011;6669;42.678;23.332;2023-11-19T08:18:51;2.40;;;2.20;;
13208;SDS011;6669;42.678;23.332;2023-11-19T08:21:19;2.37;;;2.17;;
13208;SDS011;6669;42.678;23.332;2023-11-19T08:23:50;2.53;;;2.33;;
13208;SDS011;6669;42.678;23.332;2023-11-19T08:26:19;2.77;;;2.50;;
13208;SDS011;6669;42.678;23.332;2023-11-19T08:28:47;2.93;;;2.63;;
13208;SDS011;6669;42.678;23.332;2023-11-19T08:31:15;2.80;;;2.60;;
13208;SDS011;6669;42.678;23.332;2023-11-19T08:33:43;2.47;;;2.27;;
13208;SDS011;6669;42.678;23.332;2023-11-19T08:36:15;2.93;;;2.67;;
13208;SDS011;6669;42.678;23.332;2023-11-19T08:38:43;2.77;;;2.57;;
13208;SDS011;6669;42.678;23.332;2023-11-19T08:41:14;2.50;;;2.30;;
13208;SDS011;6669;42.678;23.332;2023-11-19T08:43:44;2.40;;;2.00;;
13208;SDS011;6669;42.678;23.332;2023-11-19T08:46:12;2.43;;;2.23;;
13208;SDS011;6669;42.678;23.332;2023-11-19T08:48:40;2.80;;;1.90;;
13208;SDS011;6669;42.678;23.332;2023-11-19T08:51:08;2.20;;;2.00;;
13208;SDS011;6669;42.678;23.332;2023-11-19T08:53:36;1.80;;;1.70;;
13208;SDS011;6669;42.678;23.332;2023-11-19T08:56:05;2.50;;;2.30;;
13208;SDS011;6669;42.678;23.332;2023-11-19T08:58:35;2.03;;;1.87;;
13208;SDS011;6669;42.678;23.332;2023-11-19T09:01:03;3.43;;;2.43;;
13208;SDS011;6669;42.678;23.332;2023-11-19T09:03:32;2.13;;;1.97;;
13208;SDS011;6669;42.678;23.332;2023-11-19T09:06:00;2.20;;;2.00;;
13208;SDS011;6669;42.678;23.332;2023-11-19T09:08:28;2.57;;;2.37;;
13208;SDS011;6669;42.678;23.332;2023-11-19T09:10:56;2.30;;;2.10;;
13208;SDS011;6669;42.678;23.332;2023-11-19T09:13:25;2.37;;;2.17;;
13208;SDS011;6669;42.678;23.332;2023-11-19T09:15:54;1.87;;;1.67;;
13208;SDS011;6669;42.678;23.332;2023-11-19T09:18:25;1.97;;;1.57;;
13208;SDS011;6669;42.678;23.332;2023-11-19T09:20:53;2.57;;;2.37;;
13208;SDS011;6669;42.678;23.332;2023-11-19T09:23:22;1.70;;;1.60;;
13208;SDS011;6669;42.678;23.332;2023-11-19T09:25:51;1.93;;;1.83;;
13208;SDS011;6669;42.678;23.332;2023-11-19T09:28:19;2.20;;;2.00;;
13208;SDS011;6669;42.678;23.332;2023-11-19T09:30:48;2.03;;;1.93;;
13208;SDS011;6669;42.678;23.332;2023-11-19T09:33:17;2.27;;;2.07;;
13208;SDS011;6669;42.678;23.332;2023-11-19T09:35:46;1.60;;;1.50;;
13208;SDS011;6669;42.678;23.332;2023-11-19T09:38:16;3.43;;;2.40;;
13208;SDS011;6669;42.678;23.332;2023-11-19T09:40:44;2.67;;;2.27;;
13208;SDS011;6669;42.678;23.332;2023-11-19T09:43:14;2.03;;;1.83;;
13208;SDS011;6669;42.678;23.332;2023-11-19T09:45:46;1.73;;;1.63;;
13208;SDS011;6669;42.678;23.332;2023-11-19T09:48:19;1.37;;;1.27;;
13208;SDS011;6669;42.678;23.332;2023-11-19T09:50:52;1.67;;;1.57;;
13208;SDS011;6669;42.678;23.332;2023-11-19T09:53:24;1.67;;;1.57;;
13208;SDS011;6669;42.678;23.332;2023-11-19T09:55:56;2.10;;;2.00;;
13208;SDS011;6669;42.678;23.332;2023-11-19T09:58:24;2.30;;;2.10;;
13208;SDS011;6669;42.678;23.332;2023-11-19T10:00:53;1.97;;;1.60;;
13208;SDS011;6669;42.678;23.332;2023-11-19T10:03:43;1.77;;;1.67;;
13208;SDS011;6669;42.678;23.332;2023-11-19T10:06:15;2.17;;;1.60;;
13208;SDS011;6669;42.678;23.332;2023-11-19T10:08:49;2.03;;;1.87;;
13208;SDS011;6669;42.678;23.332;2023-11-19T10:11:17;1.73;;;1.63;;
13208;SDS011;6669;42.678;23.332;2023-11-19T10:13:47;2.67;;;2.30;;
13208;SDS011;6669;42.678;23.332;2023-11-19T10:16:17;1.47;;;1.37;;
13208;SDS011;6669;42.678;23.332;2023-11-19T10:18:48;3.37;;;1.43;;
13208;SDS011;6669;42.678;23.332;2023-11-19T10:21:18;1.47;;;1.37;;
13208;SDS011;6669;42.678;23.332;2023-11-19T10:23:48;1.73;;;1.53;;
13208;SDS011;6669;42.678;23.332;2023-11-19T10:26:19;2.20;;;2.00;;
13208;SDS011;6669;42.678;23.332;2023-11-19T10:28:49;1.77;;;1.67;;
13208;SDS011;6669;42.678;23.332;2023-11-19T10:31:19;2.27;;;2.03;;
13208;SDS011;6669;42.678;23.332;2023-11-19T10:33:53;1.87;;;1.70;;
13208;SDS011;6669;42.678;23.332;2023-11-19T10:36:37;2.27;;;2.03;;
13208;SDS011;6669;42.678;23.332;2023-11-19T10:39:07;2.17;;;1.90;;
13208;SDS011;6669;42.678;23.332;2023-11-19T10:41:51;2.10;;;1.90;;
13208;SDS011;6669;42.678;23.332;2023-11-19T10:44:33;2.40;;;2.20;;
13208;SDS011;6669;42.678;23.332;2023-11-19T10:47:13;2.33;;;1.87;;
13208;SDS011;6669;42.678;23.332;2023-11-19T10:49:47;2.47;;;2.07;;
13208;SDS011;6669;42.678;23.332;2023-11-19T10:52:18;2.20;;;2.00;;
13208;SDS011;6669;42.678;23.332;2023-11-19T10:55:01;2.20;;;1.93;;
13208;SDS011;6669;42.678;23.332;2023-11-19T10:57:42;2.03;;;1.83;;
13208;SDS011;6669;42.678;23.332;2023-11-19T11:00:15;1.87;;;1.73;;
13208;SDS011;6669;42.678;23.332;2023-11-19T11:02:47;2.27;;;1.90;;
13208;SDS011;6669;42.678;23.332;2023-11-19T11:05:23;2.10;;;1.90;;
13208;SDS011;6669;42.678;23.332;2023-11-19T11:07:55;3.23;;;2.20;;
13208;SDS011;6669;42.678;23.332;2023-11-19T11:10:25;1.90;;;1.80;;
13208;SDS011;6669;42.678;23.332;2023-11-19T11:12:53;2.43;;;2.20;;
13208;SDS011;6669;42.678;23.332;2023-11-19T11:15:26;2.33;;;2.13;;
13208;SDS011;6669;42.678;23.332;2023-11-19T11:17:57;2.00;;;1.90;;
13208;SDS011;6669;42.678;23.332;2023-11-19T11:20:31;2.10;;;1.90;;
13208;SDS011;6669;42.678;23.332;2023-11-19T11:23:05;1.70;;;1.60;;
13208;SDS011;6669;42.678;23.332;2023-11-19T11:25:59;2.13;;;2.03;;
13208;SDS011;6669;42.678;23.332;2023-11-19T11:28:43;1.80;;;1.70;;
13208;SDS011;6669;42.678;23.332;2023-11-19T11:31:22;2.10;;;1.90;;
13208;SDS011;6669;42.678;23.332;2023-11-19T11:34:01;2.03;;;1.83;;
13208;SDS011;6669;42.678;23.332;2023-11-19T11:36:42;2.07;;;1.87;;
13208;SDS011;6669;42.678;23.332;2023-11-19T11:39:17;2.10;;;1.90;;
13208;SDS011;6669;42.678;23.332;2023-11-19T11:42:04;2.10;;;1.97;;
13208;SDS011;6669;42.678;23.332;2023-11-19T11:44:59;2.60;;;1.67;;
13208;SDS011;6669;42.678;23.332;2023-11-19T11:50:32;1.63;;;1.53;;
13208;SDS011;6669;42.678;23.332;2023-11-19T11:53:17;1.90;;;1.73;;
13208;SDS011;6669;42.678;23.332;2023-11-19T11:55:55;1.70;;;1.60;;
13208;SDS011;6669;42.678;23.332;2023-11-19T11:58:26;4.70;;;1.60;;
13208;SDS011;6669;42.678;23.332;2023-11-19T12:00:59;1.77;;;1.67;;
13208;SDS011;6669;42.678;23.332;2023-11-19T12:03:28;1.70;;;1.60;;
13208;SDS011;6669;42.678;23.332;2023-11-19T12:05:57;2.97;;;2.23;;
13208;SDS011;6669;42.678;23.332;2023-11-19T12:08:28;1.47;;;1.37;;
13208;SDS011;6669;42.678;23.332;2023-11-19T12:10:58;2.83;;;1.53;;
13208;SDS011;6669;42.678;23.332;2023-11-19T12:13:42;2.93;;;1.63;;
13208;SDS011;6669;42.678;23.332;2023-11-19T12:16:14;3.40;;;1.77;;
13208;SDS011;6669;42.678;23.332;2023-11-19T12:18:43;1.60;;;1.50;;
13208;SDS011;6669;42.678;23.332;2023-11-19T12:21:11;1.90;;;1.60;;
13208;SDS011;6669;42.678;23.332;2023-11-19T12:23:59;1.70;;;1.60;;
13208;SDS011;6669;42.678;23.332;2023-11-19T12:26:34;2.40;;;1.80;;
13208;SDS011;6669;42.678;23.332;2023-11-19T12:29:06;1.90;;;1.80;;
13208;SDS011;6669;42.678;23.332;2023-11-19T12:31:36;1.88;;;1.77;;
13208;SDS011;6669;42.678;23.332;2023-11-19T12:34:05;2.23;;;2.00;;
13208;SDS011;6669;42.678;23.332;2023-11-19T12:36:39;2.33;;;2.13;;
13208;SDS011;6669;42.678;23.332;2023-11-19T12:39:11;2.83;;;2.00;;
13208;SDS011;6669;42.678;23.332;2023-11-19T12:41:51;2.45;;;1.88;;
13208;SDS011;6669;42.678;23.332;2023-11-19T12:44:21;2.43;;;2.07;;
13208;SDS011;6669;42.678;23.332;2023-11-19T12:46:59;2.27;;;2.07;;
13208;SDS011;6669;42.678;23.332;2023-11-19T12:49:43;2.20;;;2.00;;
13208;SDS011;6669;42.678;23.332;2023-11-19T12:52:22;2.27;;;2.07;;
13208;SDS011;6669;42.678;23.332;2023-11-19T12:54:53;2.40;;;2.00;;
13208;SDS011;6669;42.678;23.332;2023-11-19T12:57:35;2.83;;;2.10;;
13208;SDS011;6669;42.678;23.332;2023-11-19T13:00:08;2.20;;;2.00;;
13208;SDS011;6669;42.678;23.332;2023-11-19T13:02:48;2.67;;;2.00;;
13208;SDS011;6669;42.678;23.332;2023-11-19T13:05:23;2.80;;;2.47;;
13208;SDS011;6669;42.678;23.332;2023-11-19T13:08:04;5.30;;;3.50;;
13208;SDS011;6669;42.678;23.332;2023-11-19T13:10:49;2.67;;;2.27;;
13208;SDS011;6669;42.678;23.332;2023-11-19T13:13:20;2.93;;;2.27;;
13208;SDS011;6669;42.678;23.332;2023-11-19T13:15:49;2.77;;;1.87;;
13208;SDS011;6669;42.678;23.332;2023-11-19T13:18:17;2.90;;;2.70;;
13208;SDS011;6669;42.678;23.332;2023-11-19T13:20:46;3.33;;;2.23;;
13208;SDS011;6669;42.678;23.332;2023-11-19T13:23:14;2.43;;;2.23;;
13208;SDS011;6669;42.678;23.332;2023-11-19T13:25:46;2.37;;;2.17;;
13208;SDS011;6669;42.678;23.332;2023-11-19T13:28:18;2.67;;;2.47;;
13208;SDS011;6669;42.678;23.332;2023-11-19T13:30:46;2.90;;;2.50;;
13208;SDS011;6669;42.678;23.332;2023-11-19T13:33:15;2.50;;;2.30;;
13208;SDS011;6669;42.678;23.332;2023-11-19T13:35:43;2.40;;;2.20;;
13208;SDS011;6669;42.678;23.332;2023-11-19T13:38:12;2.57;;;2.37;;
13208;SDS011;6669;42.678;23.332;2023-11-19T13:40:41;2.30;;;2.10;;
13208;SDS011;6669;42.678;23.332;2023-11-19T13:43:14;3.03;;;2.20;;
13208;SDS011;6669;42.678;23.332;2023-11-19T13:45:45;2.40;;;2.20;;
13208;SDS011;6669;42.678;23.332;2023-11-19T13:48:14;2.67;;;2.47;;
13208;SDS011;6669;42.678;23.332;2023-11-19T13:50:42;2.60;;;2.40;;
13208;SDS011;6669;42.678;23.332;2023-11-19T13:53:14;2.20;;;2.00;;
13208;SDS011;6669;42.678;23.332;2023-11-19T13:55:42;2.40;;;2.20;;
13208;SDS011;6669;42.678;23.332;2023-11-19T13:58:11;2.60;;;2.40;;
13208;SDS011;6669;42.678;23.332;2023-11-19T14:00:42;2.50;;;2.30;;
13208;SDS011;6669;42.678;23.332;2023-11-19T14:03:10;2.50;;;2.20;;
13208;SDS011;6669;42.678;23.332;2023-11-19T14:05:38;2.37;;;2.17;;
13208;SDS011;6669;42.678;23.332;2023-11-19T14:08:08;1.90;;;1.80;;
13208;SDS011;6669;42.678;23.332;2023-11-19T14:10:52;2.20;;;2.00;;
13208;SDS011;6669;42.678;23.332;2023-11-19T14:13:23;3.40;;;1.90;;
13208;SDS011;6669;42.678;23.332;2023-11-19T14:15:56;2.30;;;2.10;;
13208;SDS011;6669;42.678;23.332;2023-11-19T14:18:39;2.30;;;2.10;;
13208;SDS011;6669;42.678;23.332;2023-11-19T14:21:07;2.30;;;2.10;;
13208;SDS011;6669;42.678;23.332;2023-11-19T14:23:35;2.30;;;2.10;;
13208;SDS011;6669;42.678;23.332;2023-11-19T14:26:04;4.50;;;2.43;;
13208;SDS011;6669;42.678;23.332;2023-11-19T14:28:34;5.10;;;3.97;;
13208;SDS011;6669;42.678;23.332;2023-11-19T14:31:21;5.37;;;4.07;;
13208;SDS011;6669;42.678;23.332;2023-11-19T14:33:49;10.90;;;6.97;;
13208;SDS011;6669;42.678;23.332;2023-11-19T14:36:20;8.83;;;4.60;;
13208;SDS011;6669;42.678;23.332;2023-11-19T14:38:48;3.00;;;2.60;;
13208;SDS011;6669;42.678;23.332;2023-11-19T14:41:17;6.77;;;4.70;;
13208;SDS011;6669;42.678;23.332;2023-11-19T14:43:45;2.73;;;2.53;;
13208;SDS011;6669;42.678;23.332;2023-11-19T14:46:14;3.30;;;3.00;;
13208;SDS011;6669;42.678;23.332;2023-11-19T14:48:44;3.10;;;2.70;;
13208;SDS011;6669;42.678;23.332;2023-11-19T14:51:13;3.67;;;3.23;;
13208;SDS011;6669;42.678;23.332;2023-11-19T14:53:41;3.00;;;2.63;;
13208;SDS011;6669;42.678;23.332;2023-11-19T14:56:10;4.70;;;3.20;;
13208;SDS011;6669;42.678;23.332;2023-11-19T14:58:39;4.40;;;3.77;;
13208;SDS011;6669;42.678;23.332;2023-11-19T15:01:11;3.67;;;3.20;;
13208;SDS011;6669;42.678;23.332;2023-11-19T15:03:39;3.90;;;3.47;;
13208;SDS011;6669;42.678;23.332;2023-11-19T15:06:13;4.40;;;4.00;;
13208;SDS011;6669;42.678;23.332;2023-11-19T15:08:41;3.97;;;3.57;;
13208;SDS011;6669;42.678;23.332;2023-11-19T15:11:11;6.00;;;3.67;;